createdAt,value
2023-01-13T00:00:00.025Z,99.99
2023-01-13T00:00:59.942Z,99.99
2023-01-13T00:01:59.899Z,99.99
2023-01-13T00:02:59.884Z,99.99
2023-01-13T00:03:59.870Z,99.99
2023-01-13T00:04:59.907Z,99.99
2023-01-13T00:05:59.859Z,99.99
2023-01-13T00:06:59.860Z,99.76
2023-01-13T00:07:59.837Z,99.55
2023-01-13T00:08:59.840Z,99.55
2023-01-13T00:09:59.838Z,99.60
2023-01-13T00:10:59.805Z,99.60
2023-01-13T00:11:59.800Z,99.71
2023-01-13T00:12:59.788Z,99.99
2023-01-13T00:13:59.809Z,99.99
2023-01-13T00:14:59.776Z,99.99
2023-01-13T00:15:59.820Z,99.99
2023-01-13T00:16:59.738Z,99.99
2023-01-13T00:17:59.908Z,99.99
2023-01-13T00:18:59.729Z,99.99
2023-01-13T00:19:59.709Z,99.99
2023-01-13T00:20:59.698Z,99.99
2023-01-13T00:21:59.723Z,99.99
2023-01-13T00:22:59.679Z,99.99
2023-01-13T00:23:59.660Z,99.99
2023-01-13T00:24:59.663Z,99.99
2023-01-13T00:25:59.655Z,99.99
2023-01-13T00:26:59.640Z,99.99
2023-01-13T00:27:59.620Z,99.99
2023-01-13T00:28:59.637Z,99.99
2023-01-13T00:29:59.617Z,99.99
2023-01-13T00:30:59.624Z,99.99
2023-01-13T00:31:59.595Z,99.99
2023-01-13T00:32:59.591Z,99.99
2023-01-13T00:33:59.789Z,99.99
2023-01-13T00:34:59.549Z,99.99
2023-01-13T00:35:59.555Z,99.99
2023-01-13T00:36:59.534Z,99.99
2023-01-13T00:37:59.523Z,99.99
2023-01-13T00:38:59.513Z,99.99
2023-01-13T00:39:59.501Z,99.99
2023-01-13T00:40:59.490Z,99.99
2023-01-13T00:41:59.473Z,99.99
2023-01-13T00:42:59.473Z,99.99
2023-01-13T00:43:59.464Z,99.99
2023-01-13T00:44:59.475Z,99.99
2023-01-13T00:45:59.446Z,99.99
2023-01-13T00:46:59.426Z,99.99
2023-01-13T00:47:59.422Z,99.99
2023-01-13T00:48:59.412Z,99.99
2023-01-13T00:49:59.404Z,99.99
2023-01-13T00:50:59.392Z,99.99
2023-01-13T00:51:59.374Z,99.99
2023-01-13T00:52:59.368Z,99.99
2023-01-13T00:53:59.344Z,99.99
2023-01-13T00:54:59.343Z,99.99
2023-01-13T00:55:59.345Z,99.99
2023-01-13T00:56:59.317Z,99.99
2023-01-13T00:57:59.317Z,99.99
2023-01-13T00:58:59.477Z,99.99
2023-01-13T00:59:59.295Z,99.99
2023-01-13T01:00:59.472Z,99.99
2023-01-13T01:01:59.404Z,99.99
2023-01-13T01:02:59.266Z,99.99
2023-01-13T01:03:59.250Z,99.99
2023-01-13T01:04:59.238Z,99.99
2023-01-13T01:05:59.228Z,99.99
2023-01-13T01:06:59.227Z,99.99
2023-01-13T01:07:59.213Z,99.99
2023-01-13T01:08:59.207Z,99.99
2023-01-13T01:09:59.207Z,99.99
2023-01-13T01:10:59.177Z,99.99
2023-01-13T01:11:59.169Z,99.99
2023-01-13T01:12:59.178Z,99.99
2023-01-13T01:13:59.147Z,99.99
2023-01-13T01:14:59.136Z,99.99
2023-01-13T01:15:59.168Z,99.99
2023-01-13T01:16:59.141Z,99.99
2023-01-13T01:17:59.116Z,99.99
2023-01-13T01:18:59.099Z,99.99
2023-01-13T01:19:59.080Z,99.99
2023-01-13T01:20:59.088Z,99.99
2023-01-13T01:21:59.078Z,99.99
2023-01-13T01:22:59.052Z,99.99
2023-01-13T01:23:59.056Z,99.99
2023-01-13T01:24:59.148Z,99.99
2023-01-13T01:25:59.028Z,99.99
2023-01-13T01:26:59.020Z,99.99
2023-01-13T01:27:59.012Z,99.99
2023-01-13T01:28:58.992Z,99.99
2023-01-13T01:29:58.984Z,99.99
2023-01-13T01:30:58.982Z,99.99
2023-01-13T01:31:58.972Z,99.99
2023-01-13T01:32:58.956Z,99.99
2023-01-13T01:33:58.932Z,99.99
2023-01-13T01:34:58.941Z,99.99
2023-01-13T01:35:58.921Z,99.99
2023-01-13T01:36:58.912Z,99.99
2023-01-13T01:37:58.901Z,99.99
2023-01-13T01:38:58.887Z,99.99
2023-01-13T01:39:58.876Z,99.82
2023-01-13T01:40:58.877Z,99.62
2023-01-13T01:41:58.861Z,99.82
2023-01-13T01:42:58.955Z,99.93
2023-01-13T01:43:58.845Z,99.93
2023-01-13T01:44:58.946Z,99.82
2023-01-13T01:45:58.816Z,99.82
2023-01-13T01:46:58.858Z,99.93
2023-01-13T01:47:58.785Z,99.93
2023-01-13T01:48:58.797Z,99.99
2023-01-13T01:49:58.783Z,99.99
2023-01-13T01:50:58.761Z,99.99
2023-01-13T01:51:58.760Z,99.99
2023-01-13T01:52:58.736Z,99.99
2023-01-13T01:53:58.736Z,99.99
2023-01-13T01:54:59.011Z,99.99
2023-01-13T01:55:58.708Z,99.99
2023-01-13T01:56:58.699Z,99.99
2023-01-13T01:57:58.690Z,99.99
2023-01-13T01:58:58.708Z,99.99
2023-01-13T01:59:58.668Z,99.99
2023-01-13T02:00:58.784Z,99.99
2023-01-13T02:01:58.728Z,99.99
2023-01-13T02:02:58.629Z,99.99
2023-01-13T02:03:58.619Z,99.99
2023-01-13T02:04:58.610Z,99.99
2023-01-13T02:05:58.607Z,99.99
2023-01-13T02:06:58.607Z,99.99
2023-01-13T02:07:58.591Z,99.99
2023-01-13T02:08:58.571Z,99.99
2023-01-13T02:09:58.560Z,99.99
2023-01-13T02:10:58.563Z,99.99
2023-01-13T02:11:58.650Z,99.88
2023-01-13T02:12:58.542Z,99.57
2023-01-13T02:13:58.521Z,99.36
2023-01-13T02:14:58.509Z,99.57
2023-01-13T02:15:58.665Z,99.36
2023-01-13T02:16:58.479Z,99.46
2023-01-13T02:17:58.492Z,99.42
2023-01-13T02:18:58.481Z,99.94
2023-01-13T02:19:58.465Z,99.52
2023-01-13T02:20:58.451Z,99.42
2023-01-13T02:21:58.431Z,98.90
2023-01-13T02:22:58.417Z,98.69
2023-01-13T02:23:58.423Z,98.65
2023-01-13T02:24:58.413Z,98.90
2023-01-13T02:25:58.399Z,99.27
2023-01-13T02:26:58.383Z,99.27
2023-01-13T02:27:58.395Z,98.85
2023-01-13T02:28:59.172Z,98.59
2023-01-13T02:29:58.355Z,98.80
2023-01-13T02:30:58.333Z,99.01
2023-01-13T02:31:58.378Z,98.80
2023-01-13T02:32:58.328Z,98.90
2023-01-13T02:33:58.313Z,98.85
2023-01-13T02:34:58.303Z,98.75
2023-01-13T02:35:58.333Z,98.75
2023-01-13T02:36:58.299Z,98.54
2023-01-13T02:37:58.493Z,98.33
2023-01-13T02:38:58.265Z,98.23
2023-01-13T02:39:58.296Z,97.61
2023-01-13T02:40:58.233Z,97.50
2023-01-13T02:41:58.223Z,97.40
2023-01-13T02:42:58.214Z,97.40
2023-01-13T02:43:58.995Z,97.77
2023-01-13T02:44:58.215Z,97.98
2023-01-13T02:45:58.247Z,97.56
2023-01-13T02:46:58.167Z,97.45
2023-01-13T02:47:58.155Z,97.25
2023-01-13T02:48:58.155Z,97.25
2023-01-13T02:49:58.138Z,97.25
2023-01-13T02:50:58.135Z,97.35
2023-01-13T02:51:58.125Z,97.45
2023-01-13T02:52:58.107Z,97.77
2023-01-13T02:53:58.098Z,97.88
2023-01-13T02:54:58.105Z,97.77
2023-01-13T02:55:58.087Z,97.67
2023-01-13T02:56:58.073Z,97.67
2023-01-13T02:57:58.265Z,97.88
2023-01-13T02:58:58.051Z,97.45
2023-01-13T02:59:58.055Z,97.25
2023-01-13T03:00:58.182Z,97.00
2023-01-13T03:01:58.223Z,97.00
2023-01-13T03:02:58.090Z,96.58
2023-01-13T03:03:58.010Z,96.06
2023-01-13T03:04:57.995Z,95.34
2023-01-13T03:05:57.992Z,94.98
2023-01-13T03:06:58.022Z,94.46
2023-01-13T03:07:57.978Z,93.95
2023-01-13T03:08:57.952Z,92.76
2023-01-13T03:09:57.939Z,92.35
2023-01-13T03:10:57.935Z,91.16
2023-01-13T03:11:58.757Z,91.02
2023-01-13T03:12:58.103Z,90.29
2023-01-13T03:13:57.926Z,89.62
2023-01-13T03:14:57.906Z,88.79
2023-01-13T03:15:58.375Z,88.34
2023-01-13T03:16:57.878Z,88.65
2023-01-13T03:17:57.852Z,88.96
2023-01-13T03:18:57.843Z,88.30
2023-01-13T03:19:57.833Z,88.20
2023-01-13T03:20:57.832Z,88.20
2023-01-13T03:21:57.812Z,87.78
2023-01-13T03:22:57.817Z,87.99
2023-01-13T03:23:57.789Z,88.76
2023-01-13T03:24:57.800Z,89.28
2023-01-13T03:25:57.978Z,89.58
2023-01-13T03:26:57.762Z,90.10
2023-01-13T03:27:57.767Z,90.97
2023-01-13T03:28:57.762Z,91.18
2023-01-13T03:29:57.783Z,91.18
2023-01-13T03:30:57.796Z,91.43
2023-01-13T03:31:57.717Z,92.05
2023-01-13T03:32:57.709Z,92.78
2023-01-13T03:33:57.700Z,92.72
2023-01-13T03:34:57.688Z,92.93
2023-01-13T03:35:57.666Z,93.96
2023-01-13T03:36:57.677Z,94.48
2023-01-13T03:37:57.681Z,94.53
2023-01-13T03:38:57.669Z,94.42
2023-01-13T03:39:57.620Z,94.63
2023-01-13T03:40:57.627Z,94.63
2023-01-13T03:41:57.600Z,94.84
2023-01-13T03:42:57.607Z,94.73
2023-01-13T03:43:57.589Z,94.94
2023-01-13T03:44:57.676Z,94.94
2023-01-13T03:45:57.619Z,94.94
2023-01-13T03:46:57.566Z,95.25
2023-01-13T03:47:57.562Z,96.08
2023-01-13T03:48:58.366Z,96.54
2023-01-13T03:49:57.519Z,96.33
2023-01-13T03:50:57.528Z,96.23
2023-01-13T03:51:57.502Z,96.12
2023-01-13T03:52:58.310Z,96.33
2023-01-13T03:53:57.477Z,96.33
2023-01-13T03:54:57.481Z,96.33
2023-01-13T03:55:58.035Z,96.54
2023-01-13T03:56:57.476Z,96.44
2023-01-13T03:57:57.503Z,96.12
2023-01-13T03:58:57.439Z,96.33
2023-01-13T03:59:58.188Z,96.33
2023-01-13T04:00:57.525Z,96.85
2023-01-13T04:01:57.528Z,96.95
2023-01-13T04:02:57.392Z,96.02
2023-01-13T04:03:57.494Z,96.54
2023-01-13T04:04:57.382Z,96.54
2023-01-13T04:05:57.372Z,96.64
2023-01-13T04:06:57.366Z,96.44
2023-01-13T04:07:57.348Z,96.95
2023-01-13T04:08:57.373Z,96.95
2023-01-13T04:09:57.331Z,96.85
2023-01-13T04:10:57.322Z,96.95
2023-01-13T04:11:57.317Z,96.95
2023-01-13T04:12:57.294Z,96.54
2023-01-13T04:13:57.274Z,96.23
2023-01-13T04:14:57.275Z,96.23
2023-01-13T04:15:57.374Z,96.02
2023-01-13T04:16:57.258Z,96.23
2023-01-13T04:17:57.224Z,95.71
2023-01-13T04:18:57.225Z,95.92
2023-01-13T04:19:58.036Z,95.92
2023-01-13T04:20:57.227Z,95.19
2023-01-13T04:21:57.196Z,93.80
2023-01-13T04:22:57.220Z,93.90
2023-01-13T04:23:57.169Z,93.70
2023-01-13T04:24:57.186Z,94.42
2023-01-13T04:25:57.236Z,95.04
2023-01-13T04:26:57.156Z,95.25
2023-01-13T04:27:57.145Z,95.87
2023-01-13T04:28:57.125Z,96.08
2023-01-13T04:29:57.122Z,96.39
2023-01-13T04:30:57.137Z,96.75
2023-01-13T04:31:57.112Z,97.06
2023-01-13T04:32:57.098Z,95.87
2023-01-13T04:33:57.107Z,96.08
2023-01-13T04:34:57.087Z,96.08
2023-01-13T04:35:57.055Z,95.98
2023-01-13T04:36:57.067Z,96.19
2023-01-13T04:37:57.049Z,96.08
2023-01-13T04:38:57.046Z,96.19
2023-01-13T04:39:57.018Z,96.60
2023-01-13T04:40:57.006Z,95.36
2023-01-13T04:41:56.993Z,95.15
2023-01-13T04:42:57.002Z,94.94
2023-01-13T04:43:56.980Z,94.37
2023-01-13T04:44:56.974Z,94.58
2023-01-13T04:45:57.020Z,93.85
2023-01-13T04:46:56.952Z,94.27
2023-01-13T04:47:56.929Z,94.58
2023-01-13T04:48:56.920Z,94.58
2023-01-13T04:49:56.911Z,94.06
2023-01-13T04:50:56.912Z,94.17
2023-01-13T04:51:56.890Z,94.48
2023-01-13T04:52:56.894Z,94.79
2023-01-13T04:53:56.860Z,95.20
2023-01-13T04:54:56.862Z,95.20
2023-01-13T04:55:56.947Z,95.10
2023-01-13T04:56:56.850Z,94.68
2023-01-13T04:57:56.846Z,94.17
2023-01-13T04:58:56.823Z,94.17
2023-01-13T04:59:56.808Z,95.00
2023-01-13T05:00:56.922Z,95.51
2023-01-13T05:01:56.821Z,95.72
2023-01-13T05:02:56.821Z,95.93
2023-01-13T05:03:56.775Z,95.83
2023-01-13T05:04:56.916Z,95.83
2023-01-13T05:05:56.736Z,96.34
2023-01-13T05:06:56.748Z,95.51
2023-01-13T05:07:56.724Z,95.51
2023-01-13T05:08:56.987Z,95.57
2023-01-13T05:09:56.720Z,95.99
2023-01-13T05:10:56.706Z,96.24
2023-01-13T05:11:56.680Z,96.34
2023-01-13T05:12:56.678Z,96.14
2023-01-13T05:13:56.674Z,95.31
2023-01-13T05:14:56.664Z,95.37
2023-01-13T05:15:56.675Z,94.95
2023-01-13T05:16:56.662Z,93.91
2023-01-13T05:17:56.627Z,93.60
2023-01-13T05:18:56.626Z,93.29
2023-01-13T05:19:56.612Z,93.29
2023-01-13T05:20:56.732Z,92.53
2023-01-13T05:21:56.581Z,92.74
2023-01-13T05:22:56.582Z,93.15
2023-01-13T05:23:56.562Z,93.15
2023-01-13T05:24:56.558Z,93.25
2023-01-13T05:25:56.557Z,92.63
2023-01-13T05:26:56.538Z,92.74
2023-01-13T05:27:56.525Z,93.35
2023-01-13T05:28:56.537Z,93.56
2023-01-13T05:29:56.548Z,93.46
2023-01-13T05:30:56.529Z,93.19
2023-01-13T05:31:56.837Z,92.98
2023-01-13T05:32:56.482Z,92.78
2023-01-13T05:33:56.460Z,92.32
2023-01-13T05:34:56.461Z,92.74
2023-01-13T05:35:56.493Z,92.11
2023-01-13T05:36:56.452Z,92.11
2023-01-13T05:37:56.446Z,92.84
2023-01-13T05:38:56.427Z,93.15
2023-01-13T05:39:57.071Z,92.22
2023-01-13T05:40:56.391Z,92.94
2023-01-13T05:41:56.399Z,93.50
2023-01-13T05:42:56.379Z,94.23
2023-01-13T05:43:56.474Z,94.64
2023-01-13T05:44:56.353Z,94.95
2023-01-13T05:45:56.340Z,94.74
2023-01-13T05:46:57.146Z,94.43
2023-01-13T05:47:56.317Z,94.54
2023-01-13T05:48:56.369Z,94.58
2023-01-13T05:49:56.304Z,95.00
2023-01-13T05:50:56.302Z,95.00
2023-01-13T05:51:56.274Z,95.20
2023-01-13T05:52:56.273Z,95.72
2023-01-13T05:53:56.292Z,95.83
2023-01-13T05:54:56.254Z,95.83
2023-01-13T05:55:56.253Z,96.14
2023-01-13T05:56:56.226Z,97.33
2023-01-13T05:57:56.234Z,97.33
2023-01-13T05:58:56.217Z,97.33
2023-01-13T05:59:56.202Z,97.02
2023-01-13T06:00:56.231Z,96.19
2023-01-13T06:01:56.186Z,96.50
2023-01-13T06:02:56.191Z,96.70
2023-01-13T06:03:56.159Z,96.91
2023-01-13T06:04:56.156Z,96.29
2023-01-13T06:05:56.128Z,95.83
2023-01-13T06:06:56.145Z,96.19
2023-01-13T06:07:56.287Z,96.34
2023-01-13T06:08:56.131Z,97.17
2023-01-13T06:09:56.088Z,97.33
2023-01-13T06:10:56.132Z,97.33
2023-01-13T06:11:56.075Z,97.53
2023-01-13T06:12:56.098Z,97.85
2023-01-13T06:13:56.057Z,98.16
2023-01-13T06:14:56.080Z,98.05
2023-01-13T06:15:56.133Z,97.95
2023-01-13T06:16:56.439Z,97.85
2023-01-13T06:17:56.011Z,97.85
2023-01-13T06:18:56.019Z,97.95
2023-01-13T06:19:56.010Z,97.64
2023-01-13T06:20:56.020Z,97.07
2023-01-13T06:21:55.989Z,96.97
2023-01-13T06:22:55.970Z,97.17
2023-01-13T06:23:55.960Z,97.49
2023-01-13T06:24:55.952Z,97.49
2023-01-13T06:25:55.951Z,97.38
2023-01-13T06:26:55.924Z,96.76
2023-01-13T06:27:55.927Z,96.66
2023-01-13T06:28:55.906Z,96.76
2023-01-13T06:29:55.913Z,96.55
2023-01-13T06:30:55.873Z,96.55
2023-01-13T06:31:55.883Z,96.76
2023-01-13T06:32:55.883Z,97.07
2023-01-13T06:33:55.853Z,97.69
2023-01-13T06:34:55.834Z,98.00
2023-01-13T06:35:56.071Z,98.11
2023-01-13T06:36:55.830Z,98.21
2023-01-13T06:37:55.813Z,97.80
2023-01-13T06:38:55.884Z,97.90
2023-01-13T06:39:55.805Z,98.32
2023-01-13T06:40:55.785Z,98.32
2023-01-13T06:41:55.909Z,98.21
2023-01-13T06:42:55.759Z,98.73
2023-01-13T06:43:55.765Z,98.11
2023-01-13T06:44:55.747Z,97.59
2023-01-13T06:45:55.752Z,97.59
2023-01-13T06:46:55.828Z,97.24
2023-01-13T06:47:55.807Z,97.44
2023-01-13T06:48:55.719Z,97.09
2023-01-13T06:49:55.696Z,96.31
2023-01-13T06:50:55.687Z,94.68
2023-01-13T06:51:55.672Z,93.35
2023-01-13T06:52:55.654Z,90.16
2023-01-13T06:53:55.657Z,88.41
2023-01-13T06:54:55.631Z,89.17
2023-01-13T06:55:55.631Z,88.45
2023-01-13T06:56:55.618Z,88.80
2023-01-13T06:57:55.618Z,89.62
2023-01-13T06:58:55.589Z,89.15
2023-01-13T06:59:55.696Z,90.08
2023-01-13T07:00:55.653Z,90.44
2023-01-13T07:01:55.782Z,90.33
2023-01-13T07:02:55.711Z,90.53
2023-01-13T07:03:55.549Z,91.09
2023-01-13T07:04:55.527Z,91.30
2023-01-13T07:05:55.561Z,92.03
2023-01-13T07:06:55.632Z,92.24
2023-01-13T07:07:55.503Z,92.55
2023-01-13T07:08:55.489Z,92.76
2023-01-13T07:09:55.479Z,93.02
2023-01-13T07:10:55.476Z,92.57
2023-01-13T07:11:55.489Z,91.90
2023-01-13T07:12:55.440Z,91.59
2023-01-13T07:13:55.631Z,90.62
2023-01-13T07:14:55.423Z,89.29
2023-01-13T07:15:55.427Z,88.47
2023-01-13T07:16:55.420Z,87.60
2023-01-13T07:17:55.405Z,87.15
2023-01-13T07:18:55.386Z,86.43
2023-01-13T07:19:55.485Z,86.12
2023-01-13T07:20:55.373Z,86.78
2023-01-13T07:21:55.364Z,87.08
2023-01-13T07:22:55.359Z,87.85
2023-01-13T07:23:55.341Z,87.68
2023-01-13T07:24:55.340Z,88.55
2023-01-13T07:25:55.338Z,88.80
2023-01-13T07:26:55.307Z,89.67
2023-01-13T07:27:55.328Z,90.08
2023-01-13T07:28:55.274Z,90.64
2023-01-13T07:29:55.274Z,91.57
2023-01-13T07:30:55.261Z,92.24
2023-01-13T07:31:55.339Z,92.55
2023-01-13T07:32:55.243Z,93.21
2023-01-13T07:33:55.234Z,93.93
2023-01-13T07:34:55.215Z,94.35
2023-01-13T07:35:55.215Z,94.81
2023-01-13T07:36:55.205Z,95.01
2023-01-13T07:37:55.196Z,95.32
2023-01-13T07:38:55.176Z,95.43
2023-01-13T07:39:55.175Z,95.74
2023-01-13T07:40:55.299Z,95.84
2023-01-13T07:41:55.149Z,95.95
2023-01-13T07:42:55.130Z,96.05
2023-01-13T07:43:55.136Z,96.15
2023-01-13T07:44:55.119Z,96.47
2023-01-13T07:45:55.141Z,96.47
2023-01-13T07:46:55.102Z,96.57
2023-01-13T07:47:55.094Z,96.67
2023-01-13T07:48:55.079Z,96.78
2023-01-13T07:49:55.070Z,96.67
2023-01-13T07:50:55.158Z,96.82
2023-01-13T07:51:55.049Z,96.41
2023-01-13T07:52:55.029Z,96.51
2023-01-13T07:53:55.032Z,96.51
2023-01-13T07:54:55.018Z,96.36
2023-01-13T07:55:55.009Z,95.95
2023-01-13T07:56:54.997Z,95.89
2023-01-13T07:57:54.987Z,95.74
2023-01-13T07:58:54.976Z,96.15
2023-01-13T07:59:54.969Z,95.95
2023-01-13T08:00:55.242Z,95.53
2023-01-13T08:01:55.214Z,96.36
2023-01-13T08:02:54.973Z,96.47
2023-01-13T08:03:54.941Z,96.67
2023-01-13T08:04:54.903Z,96.47
2023-01-13T08:05:54.903Z,95.95
2023-01-13T08:06:54.881Z,95.22
2023-01-13T08:07:54.885Z,95.18
2023-01-13T08:08:54.863Z,95.49
2023-01-13T08:09:54.871Z,95.28
2023-01-13T08:10:54.854Z,95.49
2023-01-13T08:11:54.845Z,95.80
2023-01-13T08:12:56.917Z,95.90
2023-01-13T08:13:54.818Z,96.17
2023-01-13T08:14:54.806Z,96.48
2023-01-13T08:15:54.802Z,96.27
2023-01-13T08:16:54.831Z,96.27
2023-01-13T08:17:54.773Z,96.27
2023-01-13T08:18:54.779Z,95.96
2023-01-13T08:19:54.868Z,96.02
2023-01-13T08:20:54.750Z,95.71
2023-01-13T08:21:54.759Z,95.50
2023-01-13T08:22:54.716Z,95.19
2023-01-13T08:23:54.725Z,95.15
2023-01-13T08:24:54.845Z,95.04
2023-01-13T08:25:54.703Z,94.59
2023-01-13T08:26:54.686Z,94.69
2023-01-13T08:27:54.778Z,94.07
2023-01-13T08:28:54.670Z,93.20
2023-01-13T08:29:54.659Z,92.79
2023-01-13T08:30:54.677Z,92.79
2023-01-13T08:31:54.656Z,92.33
2023-01-13T08:32:54.635Z,91.92
2023-01-13T08:33:54.626Z,91.77
2023-01-13T08:34:55.411Z,91.42
2023-01-13T08:35:54.632Z,91.11
2023-01-13T08:36:54.567Z,91.28
2023-01-13T08:37:54.839Z,90.97
2023-01-13T08:38:54.580Z,90.35
2023-01-13T08:39:54.559Z,90.20
2023-01-13T08:40:54.537Z,89.48
2023-01-13T08:41:54.543Z,89.28
2023-01-13T08:42:54.527Z,88.82
2023-01-13T08:43:54.523Z,88.82
2023-01-13T08:44:54.490Z,88.82
2023-01-13T08:45:54.506Z,89.34
2023-01-13T08:46:54.489Z,89.54
2023-01-13T08:47:54.477Z,89.54
2023-01-13T08:48:54.455Z,89.75
2023-01-13T08:49:54.462Z,89.75
2023-01-13T08:50:54.442Z,89.65
2023-01-13T08:51:54.423Z,90.26
2023-01-13T08:52:54.458Z,90.06
2023-01-13T08:53:54.438Z,89.95
2023-01-13T08:54:54.393Z,89.34
2023-01-13T08:55:54.429Z,88.89
2023-01-13T08:56:54.441Z,88.68
2023-01-13T08:58:00.473Z,88.26
2023-01-13T08:58:55.348Z,88.47
2023-01-13T08:59:55.310Z,88.17
2023-01-13T09:00:54.425Z,88.57
2023-01-13T09:01:54.491Z,88.06
2023-01-13T09:02:54.365Z,88.17
2023-01-13T09:03:54.479Z,88.06
2023-01-13T09:04:54.277Z,87.85
2023-01-13T09:05:54.285Z,87.81
2023-01-13T09:06:54.288Z,87.19
2023-01-13T09:07:54.265Z,86.99
2023-01-13T09:08:54.237Z,86.79
2023-01-13T09:09:54.241Z,86.16
2023-01-13T09:10:54.218Z,86.68
2023-01-13T09:11:54.222Z,86.68
2023-01-13T09:12:54.200Z,86.58
2023-01-13T09:13:54.306Z,86.47
2023-01-13T09:14:54.178Z,85.92
2023-01-13T09:15:54.208Z,85.41
2023-01-13T09:16:54.158Z,85.61
2023-01-13T09:17:54.159Z,86.23
2023-01-13T09:18:54.148Z,85.78
2023-01-13T09:19:54.178Z,85.47
2023-01-13T09:20:54.129Z,85.16
2023-01-13T09:21:54.120Z,85.26
2023-01-13T09:22:54.094Z,85.68
2023-01-13T09:23:54.096Z,85.57
2023-01-13T09:24:54.078Z,85.22
2023-01-13T09:25:54.071Z,85.12
2023-01-13T09:26:54.062Z,84.42
2023-01-13T09:27:54.052Z,83.22
2023-01-13T09:28:54.028Z,82.26
2023-01-13T09:29:54.044Z,80.95
2023-01-13T09:30:54.015Z,79.75
2023-01-13T09:31:54.010Z,78.28
2023-01-13T09:32:53.990Z,77.53
2023-01-13T09:33:54.019Z,76.78
2023-01-13T09:34:53.985Z,75.65
2023-01-13T09:35:53.973Z,76.09
2023-01-13T09:36:53.974Z,75.55
2023-01-13T09:37:53.963Z,75.14
2023-01-13T09:38:53.932Z,74.52
2023-01-13T09:39:53.921Z,75.24
2023-01-13T09:40:54.165Z,74.18
2023-01-13T09:41:53.968Z,72.92
2023-01-13T09:42:53.882Z,73.06
2023-01-13T09:43:53.929Z,74.18
2023-01-13T09:44:53.856Z,73.74
2023-01-13T09:45:54.726Z,72.72
2023-01-13T09:46:53.865Z,72.82
2023-01-13T09:47:53.838Z,72.52
2023-01-13T09:48:53.833Z,72.58
2023-01-13T09:49:53.817Z,72.21
2023-01-13T09:50:53.806Z,72.92
2023-01-13T09:51:53.797Z,72.45
2023-01-13T09:52:53.777Z,73.50
2023-01-13T09:53:53.785Z,73.77
2023-01-13T09:54:53.899Z,74.35
2023-01-13T09:55:53.751Z,73.40
2023-01-13T09:56:53.739Z,72.79
2023-01-13T09:57:53.842Z,71.97
2023-01-13T09:58:53.713Z,72.34
2023-01-13T09:59:53.718Z,73.81
2023-01-13T10:00:53.688Z,74.56
2023-01-13T10:01:53.701Z,75.31
2023-01-13T10:02:53.694Z,76.72
2023-01-13T10:03:53.783Z,77.87
2023-01-13T10:04:53.713Z,79.14
2023-01-13T10:05:53.652Z,81.85
2023-01-13T10:06:53.621Z,82.05
2023-01-13T10:07:53.634Z,81.78
2023-01-13T10:08:53.630Z,83.26
2023-01-13T10:09:53.614Z,84.32
2023-01-13T10:10:53.591Z,84.56
2023-01-13T10:11:53.597Z,85.18
2023-01-13T10:12:53.585Z,85.70
2023-01-13T10:13:53.569Z,86.66
2023-01-13T10:14:53.556Z,88.00
2023-01-13T10:15:53.562Z,88.92
2023-01-13T10:16:53.537Z,87.90
2023-01-13T10:17:53.633Z,88.35
2023-01-13T10:18:53.686Z,90.00
2023-01-13T10:19:53.516Z,91.49
2023-01-13T10:20:53.503Z,92.01
2023-01-13T10:21:53.479Z,91.80
2023-01-13T10:22:53.474Z,91.39
2023-01-13T10:23:53.456Z,91.91
2023-01-13T10:24:53.447Z,91.08
2023-01-13T10:25:53.487Z,92.11
2023-01-13T10:26:53.508Z,93.04
2023-01-13T10:27:53.422Z,93.04
2023-01-13T10:28:53.394Z,93.35
2023-01-13T10:29:53.404Z,92.63
2023-01-13T10:30:53.430Z,93.35
2023-01-13T10:31:53.816Z,92.73
2023-01-13T10:32:53.358Z,91.49
2023-01-13T10:33:53.351Z,93.14
2023-01-13T10:34:53.339Z,93.86
2023-01-13T10:35:54.164Z,93.76
2023-01-13T10:36:53.324Z,93.24
2023-01-13T10:37:53.312Z,92.42
2023-01-13T10:38:53.291Z,92.63
2023-01-13T10:39:53.291Z,92.93
2023-01-13T10:40:53.281Z,92.73
2023-01-13T10:41:53.263Z,92.63
2023-01-13T10:42:53.272Z,92.01
2023-01-13T10:43:54.167Z,92.21
2023-01-13T10:44:53.258Z,91.86
2023-01-13T10:45:53.223Z,92.38
2023-01-13T10:46:53.287Z,91.14
2023-01-13T10:47:53.218Z,91.25
2023-01-13T10:48:53.198Z,91.45
2023-01-13T10:49:53.181Z,90.57
2023-01-13T10:50:53.164Z,90.98
2023-01-13T10:51:53.253Z,91.97
2023-01-13T10:52:53.152Z,91.97
2023-01-13T10:53:53.141Z,91.66
2023-01-13T10:54:53.129Z,90.69
2023-01-13T10:55:54.870Z,90.28
2023-01-13T10:56:53.107Z,89.56
2023-01-13T10:57:53.086Z,89.15
2023-01-13T10:58:53.097Z,89.46
2023-01-13T10:59:53.215Z,88.95
2023-01-13T11:00:53.120Z,88.29
2023-01-13T11:01:53.947Z,89.21
2023-01-13T11:02:53.119Z,88.70
2023-01-13T11:03:53.570Z,88.49
2023-01-13T11:04:53.094Z,87.63
2023-01-13T11:05:53.015Z,87.70
2023-01-13T11:06:52.999Z,87.59
2023-01-13T11:07:53.021Z,86.63
2023-01-13T11:08:52.981Z,86.42
2023-01-13T11:09:52.963Z,86.11
2023-01-13T11:10:52.967Z,84.33
2023-01-13T11:11:52.950Z,83.51
2023-01-13T11:12:52.931Z,81.77
2023-01-13T11:13:52.940Z,82.86
2023-01-13T11:14:52.928Z,82.51
2023-01-13T11:15:52.945Z,81.70
2023-01-13T11:16:53.977Z,82.55
2023-01-13T11:17:52.872Z,82.51
2023-01-13T11:18:52.862Z,82.21
2023-01-13T11:19:52.863Z,82.10
2023-01-13T11:20:52.864Z,82.21
2023-01-13T11:21:52.842Z,82.82
2023-01-13T11:22:52.831Z,83.23
2023-01-13T11:23:52.806Z,83.03
2023-01-13T11:24:52.819Z,84.05
2023-01-13T11:25:52.807Z,83.05
2023-01-13T11:26:52.799Z,82.98
2023-01-13T11:27:52.786Z,83.19
2023-01-13T11:28:52.986Z,83.13
2023-01-13T11:29:52.748Z,83.78
2023-01-13T11:30:52.747Z,84.80
2023-01-13T11:31:52.737Z,82.98
2023-01-13T11:32:52.733Z,79.87
2023-01-13T11:33:52.706Z,79.36
2023-01-13T11:34:52.715Z,76.81
2023-01-13T11:35:52.711Z,77.00
2023-01-13T11:36:52.794Z,73.87
2023-01-13T11:37:52.658Z,69.97
2023-01-13T11:38:52.660Z,69.20
2023-01-13T11:39:52.689Z,68.28
2023-01-13T11:40:52.641Z,70.10
2023-01-13T11:41:52.620Z,72.52
2023-01-13T11:42:52.621Z,71.87
2023-01-13T11:43:52.623Z,71.56
2023-01-13T11:44:52.612Z,73.50
2023-01-13T11:45:52.610Z,74.90
2023-01-13T11:46:52.677Z,75.96
2023-01-13T11:47:52.590Z,79.24
2023-01-13T11:48:52.604Z,82.04
2023-01-13T11:49:52.533Z,82.76
2023-01-13T11:50:52.563Z,83.06
2023-01-13T11:51:52.513Z,83.06
2023-01-13T11:52:52.513Z,83.88
2023-01-13T11:53:52.503Z,83.17
2023-01-13T11:54:52.487Z,82.69
2023-01-13T11:55:52.482Z,83.51
2023-01-13T11:56:52.482Z,83.82
2023-01-13T11:57:52.598Z,83.92
2023-01-13T11:58:52.626Z,83.20
2023-01-13T11:59:52.527Z,82.79
2023-01-13T12:00:52.514Z,83.82
2023-01-13T12:01:52.449Z,84.19
2023-01-13T12:02:52.484Z,83.47
2023-01-13T12:03:52.388Z,84.42
2023-01-13T12:04:52.405Z,82.54
2023-01-13T12:05:52.403Z,80.69
2023-01-13T12:06:52.371Z,82.13
2023-01-13T12:07:52.339Z,81.10
2023-01-13T12:08:52.349Z,80.90
2023-01-13T12:09:52.332Z,79.98
2023-01-13T12:10:52.326Z,81.07
2023-01-13T12:11:52.309Z,80.25
2023-01-13T12:12:52.323Z,80.87
2023-01-13T12:13:52.301Z,80.01
2023-01-13T12:14:52.289Z,76.53
2023-01-13T12:15:52.277Z,75.44
2023-01-13T12:16:52.346Z,74.41
2023-01-13T12:17:52.244Z,72.92
2023-01-13T12:18:52.244Z,72.86
2023-01-13T12:19:52.214Z,72.55
2023-01-13T12:20:52.282Z,71.73
2023-01-13T12:21:52.204Z,72.04
2023-01-13T12:22:52.195Z,70.28
2023-01-13T12:23:52.191Z,71.91
2023-01-13T12:24:52.187Z,73.57
2023-01-13T12:25:52.163Z,72.89
2023-01-13T12:26:52.171Z,73.77
2023-01-13T12:27:52.145Z,73.10
2023-01-13T12:28:52.149Z,76.84
2023-01-13T12:29:52.113Z,76.90
2023-01-13T12:30:52.125Z,78.48
2023-01-13T12:31:52.146Z,79.16
2023-01-13T12:32:52.105Z,79.98
2023-01-13T12:33:52.076Z,79.82
2023-01-13T12:34:52.081Z,80.57
2023-01-13T12:35:52.048Z,80.46
2023-01-13T12:36:52.046Z,80.81
2023-01-13T12:37:52.042Z,81.01
2023-01-13T12:38:52.037Z,83.41
2023-01-13T12:39:52.022Z,84.03
2023-01-13T12:40:52.009Z,85.39
2023-01-13T12:41:51.987Z,86.15
2023-01-13T12:42:51.994Z,87.43
2023-01-13T12:43:51.971Z,87.67
2023-01-13T12:44:51.984Z,86.38
2023-01-13T12:45:52.000Z,88.37
2023-01-13T12:46:51.963Z,88.51
2023-01-13T12:47:51.920Z,88.62
2023-01-13T12:48:51.945Z,88.24
2023-01-13T12:49:51.902Z,90.09
2023-01-13T12:50:51.900Z,91.74
2023-01-13T12:51:52.100Z,90.75